< < Back
Terminal Aerodrome Forecast


Current Version              Previous Versions:   1  2  3  4  5  6  7  8  9  

Terminal Aerodrome Forecast

346
FTUS44 KBMX 010520
TAFANB
TAF
KANB 010520Z 0106/0206 07004KT P6SM SKC
     FM011500 05009KT P6SM SKC
     FM020100 03004KT P6SM SKC=

Latest METAR

502
SAUS70 KWBC 020400 RRF
MTRANB
METAR KANB 020353Z AUTO 00000KT 10SM CLR 23/17 A2996 RMK AO2 SLP133
T02330167


USA.gov is the U.S. government's official web portal to all federal, state and local government web resources and services.